Time;durP1;ratioP1;P1;durP2;ratioP2;P2;SDS_P1;SDS_P2;PMS_P1;PMS_P2;Temp;Humidity;BMP_temperature;BMP_pressure;BME280_temperature;BME280_humidity;BME280_pressure;Samples;Min_cycle;Max_cycle;Signal;HPM_P1;HPM_P2
2021/10/14 00:00:18;;;;;;;4.00;1.40;;;11.80;89.80;;;;;;2074590;28;20000;-92
2021/10/14 00:01:38;;;;;;;3.65;1.40;;;11.80;89.80;;;;;;2080020;28;20033;-92
2021/10/14 00:02:58;;;;;;;5.35;1.73;;;11.80;89.80;;;;;;2078521;28;20030;-91
2021/10/14 00:04:17;;;;;;;2.08;1.35;;;11.80;89.90;;;;;;2075058;28;20093;-92
2021/10/14 00:05:37;;;;;;;3.10;1.50;;;11.80;90.00;;;;;;2075093;28;20037;-91
2021/10/14 00:06:56;;;;;;;3.97;1.50;;;11.80;90.30;;;;;;2074882;28;20037;-91
2021/10/14 00:08:15;;;;;;;3.42;1.50;;;11.80;90.00;;;;;;2083152;28;20034;-92
2021/10/14 00:09:35;;;;;;;3.05;1.52;;;11.70;90.00;;;;;;2068446;28;20038;-92
2021/10/14 00:10:54;;;;;;;4.07;1.65;;;11.80;90.00;;;;;;2069071;28;20501;-92
2021/10/14 00:12:13;;;;;;;4.30;1.60;;;11.80;90.00;;;;;;2075565;28;20029;-91
2021/10/14 00:13:33;;;;;;;3.20;1.50;;;11.80;90.10;;;;;;2080862;28;20512;-92
2021/10/14 00:14:53;;;;;;;4.32;1.70;;;11.80;90.10;;;;;;2080048;28;20045;-91
2021/10/14 00:16:12;;;;;;;3.38;1.88;;;11.80;90.10;;;;;;2078334;28;20025;-91
2021/10/14 00:17:32;;;;;;;3.70;1.80;;;11.80;90.30;;;;;;2075613;28;20069;-92
2021/10/14 00:18:51;;;;;;;2.75;1.67;;;11.80;90.10;;;;;;2081388;28;20057;-92
2021/10/14 00:20:10;;;;;;;4.05;1.70;;;11.80;90.10;;;;;;2081669;28;20029;-92
2021/10/14 00:21:30;;;;;;;2.42;1.65;;;11.80;90.10;;;;;;2071733;28;20535;-92
2021/10/14 00:22:49;;;;;;;3.45;2.10;;;11.80;90.10;;;;;;2071822;28;20037;-92
2021/10/14 00:24:08;;;;;;;5.32;2.15;;;11.80;90.10;;;;;;2078511;28;20037;-91
2021/10/14 00:25:25;;;;;;;4.13;1.80;;;11.80;90.10;;;;;;2074277;28;20034;-91
2021/10/14 00:26:44;;;;;;;4.22;1.88;;;11.80;90.40;;;;;;2071119;28;20096;-91
2021/10/14 00:28:04;;;;;;;5.20;2.28;;;11.80;90.10;;;;;;2067127;28;20043;-92
2021/10/14 00:29:23;;;;;;;2.85;1.70;;;11.80;90.10;;;;;;2068654;28;20504;-91
2021/10/14 00:30:42;;;;;;;4.63;2.20;;;11.80;90.10;;;;;;2074952;28;20014;-91
2021/10/14 00:32:01;;;;;;;3.88;1.88;;;11.90;90.20;;;;;;2080272;28;20045;-92
2021/10/14 00:33:21;;;;;;;4.25;1.98;;;11.90;90.20;;;;;;2074619;28;20392;-92
2021/10/14 00:34:40;;;;;;;3.95;1.98;;;11.80;90.10;;;;;;2071999;28;20042;-92
2021/10/14 00:35:59;;;;;;;3.20;1.90;;;11.90;90.20;;;;;;2074685;28;20038;-91
2021/10/14 00:37:19;;;;;;;3.97;2.35;;;11.90;90.20;;;;;;2081104;28;20049;-92
2021/10/14 00:38:38;;;;;;;4.80;2.35;;;11.90;90.20;;;;;;2083172;28;20399;-91
2021/10/14 00:39:57;;;;;;;3.35;2.13;;;11.90;90.20;;;;;;2074644;28;20504;-91
2021/10/14 00:41:16;;;;;;;4.53;2.30;;;11.90;90.50;;;;;;2071292;28;20038;-92
2021/10/14 00:42:35;;;;;;;5.35;2.30;;;11.90;90.20;;;;;;2071662;28;20408;-92
2021/10/14 00:43:58;;;;;;;4.93;2.50;;;11.90;90.30;;;;;;2075654;28;20488;-92
2021/10/14 00:45:17;;;;;;;3.90;2.30;;;11.90;90.30;;;;;;2078389;28;20034;-92
2021/10/14 00:46:36;;;;;;;4.28;2.38;;;11.90;90.30;;;;;;2075127;28;20026;-92
2021/10/14 00:47:56;;;;;;;4.53;2.47;;;11.90;90.30;;;;;;2066470;28;20042;-91
2021/10/14 00:49:15;;;;;;;4.75;2.35;;;11.90;90.30;;;;;;2072423;28;20488;-91
2021/10/14 00:50:35;;;;;;;5.63;2.70;;;11.90;90.30;;;;;;2078484;28;20038;-91
2021/10/14 00:51:54;;;;;;;3.55;2.30;;;11.90;90.30;;;;;;2080077;28;20033;-91
2021/10/14 00:53:14;;;;;;;4.40;2.67;;;11.90;90.30;;;;;;2075581;28;20041;-92
2021/10/14 00:54:33;;;;;;;5.30;2.60;;;11.90;90.30;;;;;;2075147;28;20022;-92
2021/10/14 00:55:52;;;;;;;4.05;2.35;;;11.90;90.60;;;;;;2074949;28;20029;-92
2021/10/14 00:57:12;;;;;;;4.50;2.70;;;11.90;90.30;;;;;;2074319;28;20113;-92
2021/10/14 00:58:32;;;;;;;4.30;2.38;;;11.90;90.30;;;;;;2074463;28;20046;-91
2021/10/14 00:59:52;;;;;;;4.80;2.30;;;11.90;90.30;;;;;;2068951;28;20026;-92
2021/10/14 01:01:11;;;;;;;4.45;2.25;;;11.90;90.30;;;;;;2068506;28;20033;-91
2021/10/14 01:02:31;;;;;;;4.55;2.53;;;11.90;90.30;;;;;;2070982;28;20109;-92
2021/10/14 01:03:50;;;;;;;5.20;2.67;;;11.90;90.40;;;;;;2063128;28;20413;-92
2021/10/14 01:05:10;;;;;;;5.10;3.00;;;11.90;90.40;;;;;;2058458;28;20027;-91
2021/10/14 01:06:29;;;;;;;5.90;2.70;;;11.90;90.40;;;;;;2066935;28;20038;-92
2021/10/14 01:07:48;;;;;;;6.03;2.70;;;11.90;90.40;;;;;;2063266;28;20091;-91
2021/10/14 01:09:08;;;;;;;5.20;2.97;;;11.90;90.40;;;;;;2063686;28;20057;-92
2021/10/14 01:10:27;;;;;;;5.05;2.97;;;11.90;90.40;;;;;;2070803;28;20403;-91
2021/10/14 01:11:46;;;;;;;4.80;3.08;;;11.90;90.40;;;;;;2074810;28;20391;-91
2021/10/14 01:13:05;;;;;;;5.78;3.45;;;11.90;90.50;;;;;;2075067;28;20042;-92
2021/10/14 01:14:24;;;;;;;5.35;3.03;;;11.90;90.50;;;;;;2074265;28;20030;-92
2021/10/14 01:15:47;;;;;;;6.10;3.63;;;11.90;90.50;;;;;;2076773;28;20034;-92
2021/10/14 01:17:07;;;;;;;4.80;3.22;;;11.90;90.50;;;;;;2079590;28;20029;-92
2021/10/14 01:18:26;;;;;;;7.15;4.22;;;11.90;90.50;;;;;;2071243;28;20105;-92
2021/10/14 01:19:45;;;;;;;6.25;3.42;;;11.90;90.50;;;;;;2059932;28;20112;-92
2021/10/14 01:21:05;;;;;;;6.55;3.80;;;11.90;90.50;;;;;;2063605;28;20081;-92
2021/10/14 01:22:24;;;;;;;6.25;3.63;;;11.90;90.60;;;;;;2069642;28;20110;-90
2021/10/14 01:23:44;;;;;;;5.75;3.50;;;11.90;90.60;;;;;;2072910;28;20046;-91
2021/10/14 01:25:04;;;;;;;7.28;4.47;;;11.90;90.60;;;;;;2074270;28;20054;-93
2021/10/14 01:26:23;;;;;;;7.97;4.03;;;11.90;90.60;;;;;;2074431;28;20113;-91
2021/10/14 01:27:43;;;;;;;6.88;4.10;;;11.90;90.60;;;;;;2065435;28;20112;-92
2021/10/14 01:29:02;;;;;;;7.20;4.55;;;11.90;90.60;;;;;;2068902;28;20030;-91
2021/10/14 01:30:21;;;;;;;6.70;4.10;;;11.90;90.60;;;;;;2077343;28;20030;-91
2021/10/14 01:31:41;;;;;;;7.15;4.32;;;11.90;90.60;;;;;;2084322;28;20033;-91
2021/10/14 01:33:00;;;;;;;7.32;4.43;;;11.90;90.60;;;;;;2091115;28;20032;-91
2021/10/14 01:34:19;;;;;;;7.65;4.57;;;11.90;90.60;;;;;;2078087;28;20038;-92
2021/10/14 01:35:38;;;;;;;7.97;4.35;;;11.90;90.90;;;;;;2066373;28;20046;-91
2021/10/14 01:36:57;;;;;;;6.97;4.35;;;11.90;90.70;;;;;;2071770;28;20030;-91
2021/10/14 01:38:18;;;;;;;6.78;4.60;;;11.90;90.70;;;;;;2074524;28;20037;-91
2021/10/14 01:39:37;;;;;;;6.82;4.28;;;11.90;90.70;;;;;;2074128;28;20041;-92
2021/10/14 01:40:56;;;;;;;6.35;4.28;;;11.90;90.70;;;;;;2068223;28;20034;-92
2021/10/14 01:42:15;;;;;;;7.32;4.65;;;11.90;90.70;;;;;;2079701;28;20033;-91
2021/10/14 01:43:35;;;;;;;7.30;4.70;;;11.90;90.70;;;;;;2080333;28;20033;-92
2021/10/14 01:44:54;;;;;;;7.45;5.00;;;11.90;90.70;;;;;;2075335;28;20030;-92
2021/10/14 01:46:13;;;;;;;8.10;4.85;;;12.00;90.70;;;;;;2074340;28;20025;-92
2021/10/14 01:47:35;;;;;;;8.13;5.57;;;11.90;90.70;;;;;;2074381;28;20049;-92
2021/10/14 01:48:54;;;;;;;9.93;5.53;;;11.90;90.70;;;;;;2079868;28;20018;-92
2021/10/14 01:50:13;;;;;;;7.78;5.25;;;11.90;90.70;;;;;;2074380;28;20034;-91
2021/10/14 01:51:32;;;;;;;10.75;5.80;;;11.90;90.70;;;;;;2074013;28;20033;-92
2021/10/14 01:52:51;;;;;;;10.50;5.60;;;11.90;90.70;;;;;;2072656;28;20034;-91
2021/10/14 01:54:11;;;;;;;8.20;5.55;;;11.90;90.80;;;;;;2057819;28;20090;-92
2021/10/14 01:55:30;;;;;;;7.50;5.40;;;11.90;90.80;;;;;;2070994;28;20065;-91
2021/10/14 01:56:49;;;;;;;7.90;5.40;;;11.90;90.80;;;;;;2074112;28;20042;-91
2021/10/14 01:58:08;;;;;;;9.18;5.55;;;11.90;90.80;;;;;;2070945;28;20034;-92
2021/10/14 01:59:27;;;;;;;10.00;5.85;;;12.00;90.80;;;;;;2070549;28;20037;-92
2021/10/14 02:00:48;;;;;;;8.48;5.28;;;12.00;90.80;;;;;;2057569;28;20034;-91
2021/10/14 02:02:07;;;;;;;8.32;5.38;;;12.00;90.90;;;;;;2057388;28;20447;-92
2021/10/14 02:03:26;;;;;;;10.75;5.82;;;12.00;90.90;;;;;;2070533;28;20105;-92
2021/10/14 02:04:46;;;;;;;8.93;5.60;;;12.00;90.80;;;;;;2064030;28;20513;-91
2021/10/14 02:06:05;;;;;;;8.90;5.47;;;12.00;90.80;;;;;;2069446;28;20033;-93
2021/10/14 02:07:24;;;;;;;10.57;6.25;;;12.00;90.80;;;;;;2072850;28;20476;-92
2021/10/14 02:08:43;;;;;;;10.02;5.38;;;12.00;90.90;;;;;;2073874;28;20030;-92
2021/10/14 02:10:04;;;;;;;9.88;6.57;;;12.00;90.90;;;;;;2063134;28;20038;-93
2021/10/14 02:11:23;;;;;;;9.20;6.57;;;12.00;90.90;;;;;;2071660;28;20034;-92
2021/10/14 02:12:43;;;;;;;9.60;6.07;;;12.00;90.90;;;;;;2075714;28;20061;-91
2021/10/14 02:14:02;;;;;;;8.63;6.00;;;12.00;90.90;;;;;;2078385;28;20042;-91
2021/10/14 02:15:22;;;;;;;9.65;6.22;;;12.00;90.90;;;;;;2074755;28;20042;-91
2021/10/14 02:16:41;;;;;;;9.05;6.13;;;12.00;90.90;;;;;;2074566;28;20034;-91
2021/10/14 02:18:00;;;;;;;10.45;6.30;;;12.00;91.20;;;;;;2074946;28;20037;-92
2021/10/14 02:19:20;;;;;;;11.20;6.55;;;12.00;90.90;;;;;;2081919;28;20417;-91
2021/10/14 02:20:39;;;;;;;8.48;5.75;;;12.00;91.00;;;;;;2077595;28;20038;-92
2021/10/14 02:21:58;;;;;;;10.32;6.85;;;12.00;91.20;;;;;;2071129;28;20066;-92
2021/10/14 02:23:17;;;;;;;10.48;6.15;;;12.00;91.00;;;;;;2069788;28;20030;-91
2021/10/14 02:24:37;;;;;;;9.50;6.82;;;12.00;91.00;;;;;;2071425;28;20066;-91
2021/10/14 02:25:56;;;;;;;11.38;7.03;;;12.00;91.00;;;;;;2072968;28;20069;-91
2021/10/14 02:27:15;;;;;;;9.65;6.55;;;12.00;91.00;;;;;;2067954;28;20033;-92
2021/10/14 02:28:34;;;;;;;9.20;6.43;;;12.00;91.00;;;;;;2074509;28;20029;-92
2021/10/14 02:29:54;;;;;;;10.75;6.50;;;12.10;91.10;;;;;;2077963;28;20025;-91
2021/10/14 02:31:13;;;;;;;10.43;7.10;;;12.00;91.00;;;;;;2077348;28;20037;-92
2021/10/14 02:32:32;;;;;;;12.52;7.88;;;12.10;91.10;;;;;;2070543;28;20033;-91
2021/10/14 02:33:51;;;;;;;10.77;7.97;;;12.10;91.10;;;;;;2074203;28;20481;-91
2021/10/14 02:35:11;;;;;;;12.18;7.50;;;12.10;91.10;;;;;;2084020;28;20039;-91
2021/10/14 02:36:30;;;;;;;12.57;8.10;;;12.10;91.10;;;;;;2081787;28;20021;-91
2021/10/14 02:37:50;;;;;;;12.38;8.13;;;12.10;91.10;;;;;;2081301;28;20029;-92
2021/10/14 02:39:09;;;;;;;11.48;8.02;;;12.10;91.10;;;;;;2071822;28;20050;-92
2021/10/14 02:40:28;;;;;;;13.65;7.97;;;12.10;91.20;;;;;;2077572;28;20038;-92
2021/10/14 02:41:48;;;;;;;15.70;8.80;;;12.10;91.20;;;;;;2077501;28;20057;-93
2021/10/14 02:43:07;;;;;;;14.18;8.85;;;12.00;91.20;;;;;;2069197;28;20042;-92
2021/10/14 02:44:26;;;;;;;13.77;8.65;;;12.10;91.20;;;;;;2070452;28;20132;-92
2021/10/14 02:45:46;;;;;;;14.13;8.40;;;12.10;91.20;;;;;;2070979;28;20506;-91
2021/10/14 02:47:05;;;;;;;14.55;9.15;;;12.10;91.20;;;;;;2070902;28;20037;-91
2021/10/14 02:48:24;;;;;;;12.48;8.13;;;12.10;91.30;;;;;;2075375;28;20065;-92
2021/10/14 02:49:43;;;;;;;12.95;8.27;;;12.10;91.30;;;;;;2080131;28;20034;-92
2021/10/14 02:51:02;;;;;;;13.95;8.60;;;12.10;91.30;;;;;;2076356;28;20042;-91
2021/10/14 02:52:21;;;;;;;12.90;8.48;;;12.10;91.30;;;;;;2076126;28;20030;-92
2021/10/14 02:53:40;;;;;;;13.70;8.68;;;12.10;91.30;;;;;;2070616;28;20030;-91
2021/10/14 02:55:00;;;;;;;13.95;8.65;;;12.10;91.30;;;;;;2065840;28;20038;-92
2021/10/14 02:56:19;;;;;;;15.40;8.75;;;12.10;91.50;;;;;;2073786;28;20038;-92
2021/10/14 02:57:38;;;;;;;13.75;8.55;;;12.10;91.30;;;;;;2072158;28;20038;-92
2021/10/14 02:58:57;;;;;;;12.20;8.43;;;12.10;91.30;;;;;;2073333;28;20041;-91
2021/10/14 03:00:17;;;;;;;13.05;8.75;;;12.10;91.40;;;;;;2073921;28;20026;-92
2021/10/14 03:01:54;;;;;;;16.02;8.98;;;12.10;91.30;;;;;;2075177;28;20041;-92
2021/10/14 03:03:14;;;;;;;13.77;8.63;;;12.10;91.40;;;;;;2074102;28;20065;-92
2021/10/14 03:04:33;;;;;;;13.98;8.65;;;12.10;91.40;;;;;;2078452;28;20037;-91
2021/10/14 03:05:52;;;;;;;13.98;8.57;;;12.10;91.40;;;;;;2073685;28;20030;-91
2021/10/14 03:07:11;;;;;;;14.23;9.10;;;12.10;91.40;;;;;;2070613;28;20034;-92
2021/10/14 03:08:31;;;;;;;14.35;8.82;;;12.10;91.40;;;;;;2073804;28;20108;-92
2021/10/14 03:09:50;;;;;;;13.35;7.90;;;12.10;91.40;;;;;;2074250;28;20037;-92
2021/10/14 03:11:09;;;;;;;16.17;9.27;;;12.10;91.40;;;;;;2065535;28;20030;-92
2021/10/14 03:12:28;;;;;;;16.02;9.40;;;12.10;91.40;;;;;;2070806;28;20042;-92
2021/10/14 03:13:48;;;;;;;14.25;8.73;;;12.10;91.40;;;;;;2075233;28;20104;-92
2021/10/14 03:15:08;;;;;;;15.73;9.57;;;12.10;91.40;;;;;;2070630;28;20038;-91
2021/10/14 03:16:27;;;;;;;16.23;9.80;;;12.10;91.40;;;;;;2079142;28;20038;-92
2021/10/14 03:17:48;;;;;;;14.57;8.77;;;12.20;91.40;;;;;;2071146;28;20038;-92
2021/10/14 03:19:07;;;;;;;13.77;9.13;;;12.20;91.50;;;;;;2062292;28;20046;-92
2021/10/14 03:20:26;;;;;;;16.08;9.70;;;12.20;91.50;;;;;;2074325;28;20037;-91
2021/10/14 03:21:46;;;;;;;14.23;9.15;;;12.20;91.50;;;;;;2067440;28;20042;-91
2021/10/14 03:23:05;;;;;;;14.80;9.13;;;12.20;91.50;;;;;;2062336;28;20034;-92
2021/10/14 03:24:24;;;;;;;14.38;9.32;;;12.10;91.50;;;;;;2059878;28;20030;-91
2021/10/14 03:25:43;;;;;;;13.13;8.05;;;12.20;91.50;;;;;;2052277;28;20094;-92
2021/10/14 03:27:03;;;;;;;12.73;8.43;;;12.20;91.50;;;;;;2066371;28;20046;-92
2021/10/14 03:28:22;;;;;;;13.57;9.00;;;12.10;91.50;;;;;;2075026;28;20033;-92
2021/10/14 03:29:41;;;;;;;13.30;8.43;;;12.10;91.50;;;;;;2076865;28;20030;-91
2021/10/14 03:31:00;;;;;;;16.05;8.77;;;12.20;91.50;;;;;;2081110;28;20033;-92
2021/10/14 03:32:19;;;;;;;13.35;8.52;;;12.10;91.50;;;;;;2077324;28;20033;-91
2021/10/14 03:33:38;;;;;;;15.38;9.05;;;12.10;91.50;;;;;;2081736;28;20034;-92
2021/10/14 03:34:58;;;;;;;13.73;8.85;;;12.20;91.50;;;;;;2081388;28;20053;-92
2021/10/14 03:36:17;;;;;;;14.57;8.63;;;12.20;91.50;;;;;;2073300;28;20041;-92
2021/10/14 03:37:36;;;;;;;14.32;8.43;;;12.20;91.50;;;;;;2070219;28;20034;-92
2021/10/14 03:38:55;;;;;;;14.00;8.52;;;12.10;91.50;;;;;;2065281;28;20030;-91
2021/10/14 03:40:15;;;;;;;13.63;8.23;;;12.20;91.60;;;;;;2070367;28;20554;-92
2021/10/14 03:41:34;;;;;;;13.82;8.73;;;12.20;91.60;;;;;;2070422;28;20113;-92
2021/10/14 03:42:54;;;;;;;14.57;9.07;;;12.20;91.60;;;;;;2070480;28;20049;-92
2021/10/14 03:44:16;;;;;;;13.68;8.60;;;12.10;91.60;;;;;;2068817;28;20108;-92
2021/10/14 03:45:35;;;;;;;12.88;8.43;;;12.10;91.60;;;;;;2078572;28;20037;-92
2021/10/14 03:46:54;;;;;;;11.25;8.00;;;12.20;91.60;;;;;;2079582;28;20030;-91
2021/10/14 03:48:13;;;;;;;12.02;8.10;;;12.10;91.60;;;;;;2073856;28;20026;-92
2021/10/14 03:49:32;;;;;;;12.73;8.68;;;12.10;91.60;;;;;;2073979;28;20034;-91
2021/10/14 03:50:51;;;;;;;14.25;8.40;;;12.10;91.60;;;;;;2079869;28;20049;-92
2021/10/14 03:52:10;;;;;;;14.85;8.85;;;12.10;91.60;;;;;;2074337;28;20038;-92
2021/10/14 03:53:29;;;;;;;14.35;9.02;;;12.10;91.60;;;;;;2073513;28;20033;-92
2021/10/14 03:54:49;;;;;;;15.27;9.15;;;12.10;91.60;;;;;;2065368;28;20049;-91
2021/10/14 03:56:08;;;;;;;12.93;8.20;;;12.10;91.60;;;;;;2065183;28;20042;-92
2021/10/14 03:57:27;;;;;;;13.85;9.48;;;12.20;91.70;;;;;;2070831;28;20445;-92
2021/10/14 03:58:46;;;;;;;15.23;9.10;;;12.10;91.60;;;;;;2073764;28;20073;-92
2021/10/14 04:00:07;;;;;;;13.45;8.90;;;12.20;91.70;;;;;;2070183;28;20035;-92
2021/10/14 04:01:27;;;;;;;;;;;12.10;91.70;;;;;;2069201;28;20026;-91
2021/10/14 04:02:46;;;;;;;11.02;7.63;;;12.10;91.60;;;;;;2074916;28;20372;-92
2021/10/14 04:04:05;;;;;;;11.85;8.63;;;12.20;91.60;;;;;;2068698;28;20041;-91
2021/10/14 04:05:25;;;;;;;14.13;8.73;;;12.10;91.60;;;;;;2076404;28;20112;-92
2021/10/14 04:06:44;;;;;;;12.13;8.65;;;12.20;91.60;;;;;;2073121;28;20531;-92
2021/10/14 04:08:03;;;;;;;12.13;8.32;;;12.10;91.60;;;;;;2081902;28;20038;-92
2021/10/14 04:09:22;;;;;;;12.43;8.90;;;12.10;91.60;;;;;;2075900;28;20034;-91
2021/10/14 04:10:42;;;;;;;13.18;9.15;;;12.10;91.60;;;;;;2073484;28;20034;-92
2021/10/14 04:12:01;;;;;;;15.23;8.95;;;12.10;91.60;;;;;;2069770;28;20034;-92
2021/10/14 04:13:20;;;;;;;15.40;9.00;;;12.10;91.70;;;;;;2070125;28;20033;-92
2021/10/14 04:14:39;;;;;;;12.05;8.82;;;12.10;91.70;;;;;;2073463;28;20065;-92
2021/10/14 04:15:58;;;;;;;13.48;9.30;;;12.10;91.70;;;;;;2062401;28;20042;-92
2021/10/14 04:17:18;;;;;;;13.65;9.20;;;12.10;92.00;;;;;;2066324;28;20038;-92
2021/10/14 04:18:37;;;;;;;14.02;9.07;;;12.10;91.70;;;;;;2077147;28;20046;-92
2021/10/14 04:19:56;;;;;;;14.18;9.23;;;12.10;91.70;;;;;;2085448;28;20022;-92
2021/10/14 04:21:16;;;;;;;13.48;8.98;;;12.10;91.70;;;;;;2063571;28;20409;-92
2021/10/14 04:22:35;;;;;;;15.15;9.20;;;12.10;91.70;;;;;;2066265;28;20109;-92
2021/10/14 04:23:56;;;;;;;12.65;9.18;;;12.10;91.70;;;;;;2068278;28;20488;-92
2021/10/14 04:25:15;;;;;;;12.05;9.15;;;12.10;91.70;;;;;;2072354;28;20515;-91
2021/10/14 04:26:34;;;;;;;13.38;8.93;;;12.10;91.80;;;;;;2058155;28;20039;-91
2021/10/14 04:27:54;;;;;;;14.57;9.18;;;12.10;91.80;;;;;;2068438;28;20034;-91
2021/10/14 04:29:13;;;;;;;13.48;9.50;;;12.10;91.80;;;;;;2078970;28;20037;-92
2021/10/14 04:30:33;;;;;;;14.57;9.30;;;12.10;91.80;;;;;;2082005;28;20077;-92
2021/10/14 04:31:54;;;;;;;12.63;8.73;;;12.10;91.80;;;;;;2073483;28;20033;-93
2021/10/14 04:33:13;;;;;;;11.18;8.40;;;12.10;91.80;;;;;;2079012;28;20030;-92
2021/10/14 04:34:33;;;;;;;13.93;9.15;;;12.20;91.80;;;;;;2075182;28;20045;-91
2021/10/14 04:35:52;;;;;;;11.63;8.50;;;12.10;91.80;;;;;;2073485;28;20041;-92
2021/10/14 04:37:11;;;;;;;12.85;9.43;;;12.20;91.80;;;;;;2068026;28;20089;-92
2021/10/14 04:38:31;;;;;;;14.25;9.02;;;12.20;91.80;;;;;;2074193;28;20454;-92
2021/10/14 04:39:50;;;;;;;14.38;9.73;;;12.10;91.80;;;;;;2073675;28;20508;-92
2021/10/14 04:41:09;;;;;;;13.13;9.20;;;12.10;91.80;;;;;;2073175;28;20492;-91
2021/10/14 04:42:29;;;;;;;13.35;9.52;;;12.20;91.80;;;;;;2066431;28;20424;-91
2021/10/14 04:43:48;;;;;;;12.60;8.82;;;12.20;91.80;;;;;;2069556;28;20128;-92
2021/10/14 04:45:08;;;;;;;14.63;9.65;;;12.10;91.80;;;;;;2061266;28;20042;-91
2021/10/14 04:46:27;;;;;;;13.57;9.07;;;12.10;91.80;;;;;;2068448;28;20022;-92
2021/10/14 04:47:46;;;;;;;13.93;10.00;;;12.10;91.80;;;;;;2075148;28;20030;-92
2021/10/14 04:49:06;;;;;;;13.63;9.75;;;12.10;91.80;;;;;;2074373;28;20081;-92
2021/10/14 04:50:25;;;;;;;13.02;9.00;;;12.10;91.80;;;;;;2066740;28;20026;-93
2021/10/14 04:51:45;;;;;;;13.13;8.95;;;12.20;91.80;;;;;;2073397;28;20026;-92
2021/10/14 04:53:04;;;;;;;12.73;9.32;;;12.10;91.80;;;;;;2075182;28;20419;-92
2021/10/14 04:54:23;;;;;;;13.05;9.40;;;12.10;91.80;;;;;;2075087;28;20112;-91
2021/10/14 04:55:42;;;;;;;12.95;9.23;;;12.20;91.90;;;;;;2075327;28;20037;-91
2021/10/14 04:57:01;;;;;;;13.90;9.23;;;12.10;91.80;;;;;;2071944;28;20073;-91
2021/10/14 04:58:21;;;;;;;14.50;9.52;;;12.10;91.80;;;;;;2071605;28;20045;-91
2021/10/14 04:59:40;;;;;;;15.77;10.55;;;12.10;91.90;;;;;;2074812;28;20523;-92
2021/10/14 05:00:59;;;;;;;14.65;9.57;;;12.10;91.90;;;;;;2076860;28;20030;-90
2021/10/14 05:02:18;;;;;;;17.02;10.38;;;12.10;91.90;;;;;;2082819;28;20041;-90
2021/10/14 05:03:37;;;;;;;13.43;9.82;;;12.10;91.90;;;;;;2075548;28;20029;-92
2021/10/14 05:04:57;;;;;;;13.38;9.63;;;12.10;91.90;;;;;;2074448;28;20034;-91
2021/10/14 05:06:16;;;;;;;12.48;9.32;;;12.10;91.90;;;;;;2074930;28;20034;-91
2021/10/14 05:07:35;;;;;;;13.57;10.00;;;12.10;91.90;;;;;;2078074;28;20030;-91
2021/10/14 05:08:55;;;;;;;14.43;10.10;;;12.10;91.90;;;;;;2069939;28;20038;-92
2021/10/14 05:10:14;;;;;;;13.15;9.15;;;12.20;91.90;;;;;;2070774;28;20042;-90
2021/10/14 05:11:33;;;;;;;12.65;9.55;;;12.10;91.90;;;;;;2078143;28;20566;-89
2021/10/14 05:12:53;;;;;;;13.18;9.00;;;12.20;91.90;;;;;;2074613;28;20100;-90
2021/10/14 05:14:12;;;;;;;13.55;9.75;;;12.20;91.90;;;;;;2066346;28;20034;-90
2021/10/14 05:15:31;;;;;;;13.27;9.18;;;12.20;91.90;;;;;;2073608;28;20124;-89
2021/10/14 05:16:50;;;;;;;15.13;10.07;;;12.10;91.90;;;;;;2063694;28;20038;-91
2021/10/14 05:18:10;;;;;;;11.75;9.32;;;12.20;92.00;;;;;;2064885;28;20042;-87
2021/10/14 05:19:29;;;;;;;13.15;10.02;;;12.10;91.90;;;;;;2065902;28;20042;-91
2021/10/14 05:20:48;;;;;;;13.80;9.43;;;12.20;92.20;;;;;;2068930;28;20057;-90
2021/10/14 05:22:08;;;;;;;13.93;9.43;;;12.10;92.00;;;;;;2074836;28;20038;-91
2021/10/14 05:23:28;;;;;;;12.80;9.55;;;12.10;92.00;;;;;;2075783;28;20038;-92
2021/10/14 05:24:48;;;;;;;17.27;10.85;;;12.10;92.00;;;;;;2079883;28;20828;-91
2021/10/14 05:26:07;;;;;;;14.05;10.32;;;12.10;92.00;;;;;;2082672;28;20510;-90
2021/10/14 05:27:27;;;;;;;13.05;10.20;;;12.10;92.00;;;;;;2079346;28;20033;-91
2021/10/14 05:28:46;;;;;;;15.35;9.93;;;12.10;92.00;;;;;;2082618;28;20045;-92
2021/10/14 05:30:06;;;;;;;12.93;9.90;;;12.10;92.00;;;;;;2067804;28;20039;-92
2021/10/14 05:31:27;;;;;;;13.50;9.82;;;12.10;92.10;;;;;;2070902;28;20125;-88
2021/10/14 05:32:46;;;;;;;15.07;9.88;;;12.10;92.10;;;;;;2071729;28;20046;-92
2021/10/14 05:34:05;;;;;;;13.50;9.45;;;12.10;92.10;;;;;;2066069;28;20026;-91
2021/10/14 05:35:24;;;;;;;12.50;9.40;;;12.10;92.10;;;;;;2062971;28;20050;-88
2021/10/14 05:36:44;;;;;;;15.30;9.55;;;12.10;92.10;;;;;;2072043;28;20030;-90
2021/10/14 05:38:03;;;;;;;14.95;9.63;;;12.10;92.20;;;;;;2081574;28;20037;-89
2021/10/14 05:39:23;;;;;;;13.27;9.68;;;12.10;92.20;;;;;;2074862;28;20496;-83
2021/10/14 05:40:45;;;;;;;13.55;9.32;;;12.10;92.20;;;;;;2078989;28;20029;-91
2021/10/14 05:42:05;;;;;;;12.30;9.10;;;12.10;92.20;;;;;;2074785;28;20480;-92
2021/10/14 05:43:24;;;;;;;13.60;9.70;;;12.10;92.20;;;;;;2074364;28;20041;-90
2021/10/14 05:44:43;;;;;;;13.13;9.55;;;12.10;92.20;;;;;;2072419;28;20057;-91
2021/10/14 05:46:02;;;;;;;13.07;9.50;;;12.10;92.20;;;;;;2068037;28;20039;-91
2021/10/14 05:47:22;;;;;;;13.35;9.55;;;12.10;92.20;;;;;;2073329;28;20034;-91
2021/10/14 05:48:41;;;;;;;14.55;9.85;;;12.10;92.20;;;;;;2074766;28;20451;-91
2021/10/14 05:50:00;;;;;;;12.98;9.07;;;12.10;92.20;;;;;;2066076;28;20038;-91
2021/10/14 05:51:19;;;;;;;13.20;9.93;;;12.20;92.30;;;;;;2058938;28;20034;-91
2021/10/14 05:52:39;;;;;;;13.75;9.73;;;12.10;92.30;;;;;;2071020;28;20042;-92
2021/10/14 05:53:58;;;;;;;13.20;9.93;;;12.10;92.20;;;;;;2075899;28;20030;-91
2021/10/14 05:55:17;;;;;;;14.77;9.73;;;12.20;92.30;;;;;;2075539;28;20516;-91
2021/10/14 05:56:36;;;;;;;14.23;10.00;;;12.10;92.30;;;;;;2070977;28;20034;-91
2021/10/14 05:57:55;;;;;;;13.63;9.73;;;12.10;92.30;;;;;;2063517;28;20039;-91
2021/10/14 05:59:14;;;;;;;13.82;9.73;;;12.20;92.30;;;;;;2071082;28;20042;-91
2021/10/14 06:00:33;;;;;;;13.00;9.57;;;12.20;92.30;;;;;;2066092;28;20452;-91
2021/10/14 06:01:52;;;;;;;13.90;9.52;;;12.20;92.30;;;;;;2071129;28;20034;-91
2021/10/14 06:03:11;;;;;;;13.38;9.80;;;12.10;92.30;;;;;;2075429;28;20070;-91
2021/10/14 06:04:30;;;;;;;14.93;10.75;;;12.10;92.30;;;;;;2071097;28;20030;-91
2021/10/14 06:05:50;;;;;;;13.38;9.82;;;12.10;92.30;;;;;;2066130;28;20038;-91
2021/10/14 06:07:10;;;;;;;13.77;10.13;;;12.20;92.30;;;;;;2070557;28;20038;-90
2021/10/14 06:08:29;;;;;;;15.45;9.65;;;12.20;92.40;;;;;;2074817;28;20038;-89
2021/10/14 06:09:49;;;;;;;15.05;9.98;;;12.20;92.30;;;;;;2066568;28;20026;-92
2021/10/14 06:11:08;;;;;;;14.20;10.07;;;12.10;92.30;;;;;;2071053;28;20456;-92
2021/10/14 06:12:27;;;;;;;14.73;9.98;;;12.20;92.40;;;;;;2072594;28;20060;-91
2021/10/14 06:13:47;;;;;;;14.05;9.90;;;12.20;92.40;;;;;;2077291;28;20482;-92
2021/10/14 06:15:08;;;;;;;14.27;10.80;;;12.20;92.60;;;;;;2074083;28;20109;-91
2021/10/14 06:16:27;;;;;;;15.55;10.23;;;12.10;92.40;;;;;;2072527;28;20065;-92
2021/10/14 06:17:46;;;;;;;15.82;10.35;;;12.20;92.40;;;;;;2074113;28;20455;-91
2021/10/14 06:19:05;;;;;;;14.52;10.40;;;12.20;92.40;;;;;;2076845;28;20057;-92
2021/10/14 06:20:25;;;;;;;12.43;9.32;;;12.20;92.40;;;;;;2071342;28;20436;-91
2021/10/14 06:21:44;;;;;;;15.43;10.38;;;12.20;92.40;;;;;;2073855;28;20045;-91
2021/10/14 06:23:06;;;;;;;13.45;10.15;;;12.20;92.40;;;;;;2082453;28;20025;-91
2021/10/14 06:24:25;;;;;;;14.38;9.90;;;12.20;92.40;;;;;;2081096;28;20037;-91
2021/10/14 06:25:44;;;;;;;14.75;10.10;;;12.20;92.40;;;;;;2082130;28;20041;-92
2021/10/14 06:27:04;;;;;;;13.68;9.68;;;12.20;92.40;;;;;;2069157;28;20524;-92
2021/10/14 06:28:23;;;;;;;14.38;9.98;;;12.20;92.40;;;;;;2063580;28;20034;-91
2021/10/14 06:29:42;;;;;;;13.68;10.23;;;12.20;92.40;;;;;;2065749;28;20034;-92
2021/10/14 06:31:01;;;;;;;14.63;10.25;;;12.30;92.50;;;;;;2062361;28;20043;-91
2021/10/14 06:32:20;;;;;;;13.63;9.88;;;12.30;92.80;;;;;;2072910;28;20034;-92
2021/10/14 06:33:40;;;;;;;13.15;9.43;;;12.30;92.50;;;;;;2080444;28;20006;-91
2021/10/14 06:34:59;;;;;;;14.18;10.52;;;12.30;92.50;;;;;;2066772;28;20035;-92
2021/10/14 06:36:18;;;;;;;12.40;9.68;;;12.30;92.50;;;;;;2073117;28;20042;-91
2021/10/14 06:39:15;;;;;;;14.10;9.90;;;12.30;92.50;;;;;;2081363;28;20045;-92
2021/10/14 06:40:35;;;;;;;14.50;10.57;;;12.30;92.40;;;;;;2080526;28;20025;-92
2021/10/14 06:41:55;;;;;;;15.60;10.50;;;12.30;92.50;;;;;;2075724;28;20042;-91
2021/10/14 06:43:14;;;;;;;16.83;10.50;;;12.30;92.50;;;;;;2074051;28;20038;-91
2021/10/14 06:44:33;;;;;;;14.82;10.80;;;12.30;92.50;;;;;;2074368;28;20049;-91
2021/10/14 06:45:52;;;;;;;15.50;11.10;;;12.30;92.50;;;;;;2074577;28;20395;-92
2021/10/14 06:47:11;;;;;;;16.95;11.55;;;12.30;92.50;;;;;;2065877;28;20042;-91
2021/10/14 06:48:30;;;;;;;18.27;12.27;;;12.30;92.50;;;;;;2060446;28;20455;-91
2021/10/14 06:49:49;;;;;;;21.25;13.80;;;12.30;92.50;;;;;;2062365;28;20120;-91